createdAt,value
2023-05-02T00:01:54.221Z,76.07
2023-05-02T00:04:23.700Z,76.08
2023-05-02T00:06:53.986Z,75.92
2023-05-02T00:10:25.160Z,75.81
2023-05-02T00:13:53.758Z,76.05
2023-05-02T00:17:22.032Z,75.60
2023-05-02T00:20:50.363Z,75.40
2023-05-02T00:28:10.921Z,75.85
2023-05-02T00:31:39.097Z,76.15
2023-05-02T00:35:15.113Z,75.83
2023-05-02T00:38:20.210Z,75.30
2023-05-02T00:41:48.366Z,75.86
2023-05-02T00:45:21.727Z,76.01
2023-05-02T00:48:49.950Z,75.92
2023-05-02T00:52:18.125Z,76.16
2023-05-02T00:55:46.482Z,76.40
2023-05-02T00:59:14.596Z,77.20
2023-05-02T01:02:37.796Z,76.53
2023-05-02T01:06:09.622Z,76.19
2023-05-02T01:09:20.540Z,76.60
2023-05-02T01:12:50.922Z,76.78
2023-05-02T01:16:19.361Z,77.35
2023-05-02T01:19:51.860Z,77.34
2023-05-02T01:23:02.952Z,76.84
2023-05-02T01:26:21.207Z,77.55
2023-05-02T01:30:07.778Z,77.20
2023-05-02T01:33:39.901Z,77.48
2023-05-02T01:37:08.084Z,78.14
2023-05-02T01:40:36.254Z,78.14
2023-05-02T01:44:08.803Z,78.17
2023-05-02T01:47:37.231Z,78.88
2023-05-02T01:50:09.611Z,79.12
2023-05-02T01:52:38.807Z,78.87
2023-05-02T01:55:12.508Z,78.50
2023-05-02T01:57:44.291Z,78.42
2023-05-02T02:00:14.173Z,78.84
2023-05-02T02:02:45.797Z,78.67
2023-05-02T02:05:16.269Z,78.92
2023-05-02T02:07:45.258Z,79.22
2023-05-02T02:10:13.845Z,79.25
2023-05-02T02:12:49.293Z,79.08
2023-05-02T02:15:27.702Z,78.24
2023-05-02T02:18:10.445Z,78.47
2023-05-02T02:20:43.875Z,78.93
2023-05-02T02:23:13.730Z,78.86
2023-05-02T02:25:44.638Z,79.27
2023-05-02T02:28:13.296Z,79.30
2023-05-02T02:30:41.839Z,79.37
2023-05-02T02:33:10.769Z,78.74
2023-05-02T02:35:48.630Z,79.17
2023-05-02T02:38:48.834Z,78.87
2023-05-02T02:41:20.106Z,79.02
2023-05-02T02:43:59.442Z,78.82
2023-05-02T02:46:51.250Z,78.48
2023-05-02T02:49:47.605Z,78.70
2023-05-02T02:52:28.681Z,78.84
2023-05-02T02:55:26.664Z,78.65
2023-05-02T02:58:00.721Z,78.83
2023-05-02T03:00:29.967Z,78.44
2023-05-02T03:02:58.832Z,78.28
2023-05-02T03:05:30.680Z,78.23
2023-05-02T03:08:01.013Z,78.08
2023-05-02T03:10:29.836Z,78.06
2023-05-02T03:12:58.326Z,78.36
2023-05-02T03:15:52.190Z,78.34
2023-05-02T03:18:21.189Z,78.23
2023-05-02T03:20:49.775Z,78.37
2023-05-02T03:23:18.363Z,78.16
2023-05-02T03:25:47.044Z,78.33
2023-05-02T03:28:15.833Z,78.52
2023-05-02T03:30:44.936Z,78.49
2023-05-02T03:34:13.629Z,78.00
2023-05-02T03:37:42.445Z,78.26
2023-05-02T03:41:10.851Z,77.83
2023-05-02T03:48:32.365Z,77.93
2023-05-02T03:51:03.407Z,77.56
2023-05-02T03:53:32.508Z,77.76
2023-05-02T03:56:01.192Z,77.52
2023-05-02T03:58:33.871Z,77.85
2023-05-02T04:01:02.588Z,78.04
2023-05-02T04:03:31.400Z,78.21
2023-05-02T04:06:02.592Z,77.79
2023-05-02T04:08:31.378Z,77.63
2023-05-02T04:11:00.076Z,77.69
2023-05-02T04:13:29.574Z,77.48
2023-05-02T04:15:58.977Z,77.21
2023-05-02T04:18:31.253Z,77.39
2023-05-02T04:21:00.751Z,76.88
2023-05-02T04:23:29.954Z,76.20
2023-05-02T04:26:41.298Z,75.94
2023-05-02T04:33:28.488Z,75.14
2023-05-02T04:36:37.110Z,74.71
2023-05-02T04:39:45.465Z,74.27
2023-05-02T04:43:12.069Z,73.69
2023-05-02T04:45:44.650Z,73.66
2023-05-02T04:48:58.293Z,73.20
2023-05-02T04:51:28.311Z,72.35
2023-05-02T04:53:57.506Z,72.46
2023-05-02T04:56:26.202Z,71.77
2023-05-02T04:58:54.984Z,70.51
2023-05-02T05:01:24.941Z,70.69
2023-05-02T05:04:33.320Z,69.96
2023-05-02T05:07:41.950Z,69.88
2023-05-02T05:14:23.588Z,68.55
2023-05-02T05:17:34.653Z,67.37
2023-05-02T05:20:25.381Z,66.63
2023-05-02T05:27:27.739Z,66.92
2023-05-02T05:30:35.978Z,65.63
2023-05-02T05:33:46.143Z,64.47
2023-05-02T05:40:27.040Z,64.63
2023-05-02T05:43:38.368Z,63.11
2023-05-02T05:46:47.536Z,62.63
2023-05-02T05:49:16.756Z,62.15
2023-05-02T05:51:47.777Z,61.19
2023-05-02T05:54:57.032Z,61.03
2023-05-02T05:58:06.765Z,61.08
2023-05-02T06:01:15.586Z,60.37
2023-05-02T06:04:23.728Z,59.97
2023-05-02T06:07:33.683Z,59.29
2023-05-02T06:10:41.824Z,58.29
2023-05-02T06:13:50.423Z,58.69
2023-05-02T06:20:31.430Z,58.78
2023-05-02T06:23:40.665Z,58.42
2023-05-02T06:26:49.078Z,57.80
2023-05-02T06:29:57.090Z,56.79
2023-05-02T06:33:05.445Z,57.75
2023-05-02T06:36:13.720Z,56.18
2023-05-02T06:39:21.940Z,55.93
2023-05-02T06:42:29.943Z,56.29
2023-05-02T06:45:38.231Z,56.11
2023-05-02T06:48:46.476Z,55.20
2023-05-02T06:51:15.269Z,54.97
2023-05-02T06:53:43.833Z,54.43
2023-05-02T06:56:12.129Z,52.26
2023-05-02T06:59:20.342Z,50.99
2023-05-02T07:02:28.579Z,50.54
2023-05-02T07:05:37.028Z,51.18
2023-05-02T07:08:45.429Z,49.78
2023-05-02T07:11:55.257Z,48.94
2023-05-02T07:15:07.929Z,49.74
2023-05-02T07:18:16.153Z,48.70
2023-05-02T07:21:24.255Z,49.99
2023-05-02T07:28:04.346Z,46.82
2023-05-02T07:31:12.490Z,49.02
2023-05-02T07:34:20.742Z,47.31
2023-05-02T07:37:34.396Z,46.94
2023-05-02T07:40:42.771Z,45.48
2023-05-02T07:43:51.118Z,46.04
2023-05-02T07:46:59.318Z,46.24
2023-05-02T07:49:27.692Z,46.00
2023-05-02T07:51:56.574Z,47.43
2023-05-02T07:54:28.243Z,47.15
2023-05-02T07:56:59.069Z,45.12
2023-05-02T08:00:07.182Z,45.40
2023-05-02T08:03:21.365Z,43.97
2023-05-02T08:06:29.617Z,42.73
2023-05-02T08:13:24.381Z,40.94
2023-05-02T08:16:32.614Z,41.93
2023-05-02T08:19:40.918Z,42.10
2023-05-02T08:22:49.067Z,39.10
2023-05-02T08:25:57.180Z,39.87
2023-05-02T08:29:05.217Z,40.49
2023-05-02T08:31:34.599Z,39.00
2023-05-02T08:34:02.835Z,39.30
2023-05-02T08:36:31.047Z,39.17
2023-05-02T08:39:39.219Z,38.61
2023-05-02T08:42:47.452Z,34.88
2023-05-02T08:45:55.622Z,35.93
2023-05-02T08:49:03.767Z,37.96
2023-05-02T08:52:09.109Z,36.94
2023-05-02T08:55:22.957Z,34.67
2023-05-02T08:58:31.173Z,33.13
2023-05-02T09:01:39.469Z,33.77
2023-05-02T09:04:47.691Z,37.52
2023-05-02T09:11:53.182Z,37.25
2023-05-02T09:15:01.494Z,37.95
2023-05-02T09:18:09.836Z,36.46
2023-05-02T09:21:20.561Z,36.36
2023-05-02T09:24:29.418Z,32.65
2023-05-02T09:27:22.665Z,31.68
2023-05-02T09:30:31.001Z,30.71
2023-05-02T09:33:39.214Z,29.11
2023-05-02T09:36:47.636Z,31.76
2023-05-02T09:39:55.677Z,34.86
2023-05-02T09:47:25.064Z,31.25
2023-05-02T09:49:53.670Z,31.12
2023-05-02T09:52:22.064Z,31.56
2023-05-02T09:54:53.679Z,32.02
2023-05-02T09:57:22.199Z,30.63
2023-05-02T09:59:57.019Z,30.91
2023-05-02T10:02:26.260Z,31.26
2023-05-02T10:04:57.702Z,33.56
2023-05-02T10:07:26.674Z,34.42
2023-05-02T10:09:55.062Z,33.95
2023-05-02T10:13:03.366Z,34.47
2023-05-02T10:16:11.510Z,33.30
2023-05-02T10:19:00.021Z,34.76
2023-05-02T10:22:08.047Z,32.81
2023-05-02T10:25:16.675Z,32.27
2023-05-02T10:28:24.810Z,33.78
2023-05-02T10:35:30.672Z,32.09
2023-05-02T10:38:00.892Z,33.73
2023-05-02T10:41:09.021Z,29.77
2023-05-02T10:44:17.248Z,31.22
2023-05-02T10:47:30.710Z,29.42
2023-05-02T10:50:02.607Z,31.84
2023-05-02T10:52:33.536Z,29.84
2023-05-02T10:55:15.916Z,32.83
2023-05-02T10:57:59.737Z,33.61
2023-05-02T11:00:32.573Z,31.58
2023-05-02T11:03:02.191Z,32.22
2023-05-02T11:05:30.990Z,32.36
2023-05-02T11:08:20.285Z,31.16
2023-05-02T11:11:30.436Z,31.17
2023-05-02T11:13:58.600Z,28.77
2023-05-02T11:17:06.873Z,27.78
2023-05-02T11:19:58.241Z,30.91
2023-05-02T11:23:12.496Z,30.55
2023-05-02T11:26:20.604Z,27.70
2023-05-02T11:29:28.718Z,28.48
2023-05-02T11:32:36.889Z,29.43
2023-05-02T11:35:06.175Z,28.57
2023-05-02T11:37:34.722Z,28.95
2023-05-02T11:43:44.664Z,28.42
2023-05-02T11:46:13.104Z,29.27
2023-05-02T11:48:41.868Z,30.14
2023-05-02T11:51:10.461Z,31.01
2023-05-02T11:53:40.884Z,30.92
2023-05-02T11:56:09.276Z,28.27
2023-05-02T11:58:37.852Z,30.25
2023-05-02T12:01:16.585Z,30.10
2023-05-02T12:03:45.737Z,29.54
2023-05-02T12:06:20.786Z,28.96
2023-05-02T12:08:49.572Z,28.72
2023-05-02T12:11:17.889Z,29.88
2023-05-02T12:13:47.598Z,28.49
2023-05-02T12:16:16.698Z,27.19
2023-05-02T12:18:45.690Z,26.31
2023-05-02T12:21:53.909Z,27.63
2023-05-02T12:24:22.377Z,26.93
2023-05-02T12:27:30.695Z,30.14
2023-05-02T12:30:38.781Z,29.21
2023-05-02T12:37:50.335Z,28.16
2023-05-02T12:40:58.346Z,27.68
2023-05-02T12:44:06.398Z,27.61
2023-05-02T12:47:19.552Z,27.45
2023-05-02T12:50:37.025Z,27.14
2023-05-02T12:53:45.080Z,26.65
2023-05-02T12:56:53.201Z,27.13
2023-05-02T12:59:31.549Z,26.79
2023-05-02T13:02:39.914Z,27.06
2023-05-02T13:05:54.433Z,27.78
2023-05-02T13:09:02.774Z,26.65
2023-05-02T13:12:10.851Z,26.25
2023-05-02T13:15:18.916Z,26.50
2023-05-02T13:18:27.114Z,26.85
2023-05-02T13:21:35.802Z,26.47
2023-05-02T13:24:45.088Z,26.21
2023-05-02T13:27:54.856Z,26.22
2023-05-02T13:34:15.523Z,26.92
2023-05-02T13:37:23.637Z,26.30
2023-05-02T13:40:32.087Z,25.54
2023-05-02T13:49:18.123Z,24.59
2023-05-02T13:51:46.242Z,26.06
2023-05-02T13:54:15.579Z,24.58
2023-05-02T13:56:43.952Z,25.02
2023-05-02T13:59:12.126Z,24.91
2023-05-02T14:01:40.906Z,25.59
2023-05-02T14:04:09.669Z,25.50
2023-05-02T14:06:38.418Z,26.50
2023-05-02T14:09:07.490Z,26.17
2023-05-02T14:11:36.576Z,26.16
2023-05-02T14:14:05.088Z,25.56
2023-05-02T14:16:35.373Z,24.93
2023-05-02T14:19:43.618Z,24.42
2023-05-02T14:22:51.857Z,25.26
2023-05-02T14:25:59.938Z,24.19
2023-05-02T14:29:07.889Z,24.85
2023-05-02T14:32:15.967Z,24.79
2023-05-02T14:35:24.175Z,24.69
2023-05-02T14:41:24.547Z,24.74
2023-05-02T14:43:53.718Z,24.75
2023-05-02T14:46:22.245Z,24.71
2023-05-02T14:48:50.457Z,24.73
2023-05-02T14:51:18.778Z,24.16
2023-05-02T14:53:48.068Z,24.12
2023-05-02T14:56:18.786Z,25.14
2023-05-02T14:59:26.896Z,25.65
2023-05-02T15:02:35.185Z,23.95
2023-05-02T15:05:05.925Z,24.16
2023-05-02T15:08:17.396Z,23.59
2023-05-02T15:11:30.687Z,24.29
2023-05-02T15:14:39.005Z,25.43
2023-05-02T15:17:08.163Z,25.45
2023-05-02T15:19:36.482Z,25.66
2023-05-02T15:22:05.068Z,25.96
2023-05-02T15:25:13.221Z,26.49
2023-05-02T15:28:21.393Z,27.26
2023-05-02T15:30:49.975Z,27.26
2023-05-02T15:33:18.302Z,26.89
2023-05-02T15:36:32.414Z,26.90
2023-05-02T15:39:00.817Z,27.09
2023-05-02T15:42:09.218Z,27.00
2023-05-02T15:45:17.559Z,26.67
2023-05-02T15:51:22.588Z,27.22
2023-05-02T15:54:31.071Z,27.62
2023-05-02T15:57:39.295Z,28.32
2023-05-02T16:00:47.746Z,28.27
2023-05-02T16:07:28.281Z,29.01
2023-05-02T16:10:36.377Z,28.65
2023-05-02T16:13:44.867Z,28.67
2023-05-02T16:16:53.385Z,28.91
2023-05-02T16:20:02.112Z,28.67
2023-05-02T16:23:10.644Z,29.11
2023-05-02T16:29:50.828Z,29.63
2023-05-02T16:32:58.871Z,30.41
2023-05-02T16:36:06.951Z,30.99
2023-05-02T16:39:20.482Z,31.48
2023-05-02T16:42:29.106Z,31.75
2023-05-02T16:45:37.252Z,32.55
2023-05-02T16:48:45.707Z,33.53
2023-05-02T16:51:53.754Z,33.53
2023-05-02T16:54:22.540Z,33.73
2023-05-02T16:56:51.536Z,34.34
2023-05-02T16:59:19.711Z,34.67
2023-05-02T17:02:28.241Z,35.41
2023-05-02T17:05:36.472Z,36.35
2023-05-02T17:08:45.577Z,37.55
2023-05-02T17:11:59.118Z,38.57
2023-05-02T17:15:07.540Z,39.38
2023-05-02T17:18:16.039Z,40.30
2023-05-02T17:21:24.503Z,41.48
2023-05-02T17:24:32.646Z,41.83
2023-05-02T17:27:41.091Z,42.97
2023-05-02T17:30:49.715Z,43.33
2023-05-02T17:33:58.079Z,43.54
2023-05-02T17:37:06.113Z,44.05
2023-05-02T17:40:14.266Z,44.41
2023-05-02T17:46:54.450Z,45.59
2023-05-02T17:49:22.935Z,45.93
2023-05-02T17:51:51.414Z,46.11
2023-05-02T17:54:20.102Z,46.18
2023-05-02T17:56:48.383Z,46.69
2023-05-02T17:59:17.574Z,47.08
2023-05-02T18:01:45.979Z,47.75
2023-05-02T18:04:15.057Z,47.58
2023-05-02T18:06:43.450Z,48.13
2023-05-02T18:09:12.722Z,48.21
2023-05-02T18:11:41.421Z,48.51
2023-05-02T18:14:09.801Z,48.52
2023-05-02T18:16:38.177Z,49.25
2023-05-02T18:19:46.689Z,49.11
2023-05-02T18:22:54.923Z,49.86
2023-05-02T18:29:35.065Z,51.12
2023-05-02T18:32:43.184Z,51.60
2023-05-02T18:35:51.742Z,51.63
2023-05-02T18:38:59.899Z,52.27
2023-05-02T18:42:08.303Z,52.30
2023-05-02T18:45:19.043Z,52.88
2023-05-02T18:51:34.548Z,53.77
2023-05-02T18:54:03.131Z,54.16
2023-05-02T18:56:31.510Z,53.84
2023-05-02T18:59:00.174Z,54.43
2023-05-02T19:01:28.523Z,54.45
2023-05-02T19:03:57.714Z,54.35
2023-05-02T19:06:28.459Z,54.48
2023-05-02T19:08:57.280Z,54.84
2023-05-02T19:11:27.771Z,54.98
2023-05-02T19:14:00.308Z,55.52
2023-05-02T19:16:29.452Z,56.05
2023-05-02T19:18:58.196Z,56.18
2023-05-02T19:21:27.698Z,56.56
2023-05-02T19:23:56.898Z,56.93
2023-05-02T19:26:25.785Z,57.02
2023-05-02T19:28:54.173Z,57.25
2023-05-02T19:31:23.637Z,57.66
2023-05-02T19:33:53.076Z,57.57
2023-05-02T19:36:24.224Z,57.18
2023-05-02T19:38:58.353Z,57.66
2023-05-02T19:41:26.729Z,57.88
2023-05-02T19:43:57.472Z,57.75
2023-05-02T19:46:26.196Z,57.84
2023-05-02T19:48:54.723Z,57.86
2023-05-02T19:51:25.827Z,57.84
2023-05-02T19:53:54.479Z,57.92
2023-05-02T19:56:25.926Z,57.71
2023-05-02T19:58:59.693Z,58.19
2023-05-02T20:01:31.764Z,58.63
2023-05-02T20:04:00.676Z,58.59
2023-05-02T20:06:29.162Z,58.72
2023-05-02T20:08:57.634Z,59.40
2023-05-02T20:11:26.524Z,58.68
2023-05-02T20:14:34.652Z,59.06
2023-05-02T20:17:42.777Z,59.27
2023-05-02T20:20:51.268Z,59.94
2023-05-02T20:23:59.321Z,60.57
2023-05-02T20:30:39.087Z,60.99
2023-05-02T20:33:47.332Z,61.31
2023-05-02T20:36:55.789Z,61.25
2023-05-02T20:40:04.099Z,61.46
2023-05-02T20:46:48.485Z,62.26
2023-05-02T20:49:17.028Z,62.28
2023-05-02T20:51:45.249Z,62.88
2023-05-02T20:54:14.053Z,63.40
2023-05-02T20:56:42.417Z,63.77
2023-05-02T20:59:11.820Z,64.04
2023-05-02T21:01:40.385Z,64.07
2023-05-02T21:04:09.138Z,64.05
2023-05-02T21:06:37.686Z,64.48
2023-05-02T21:09:08.513Z,64.71
2023-05-02T21:11:36.901Z,64.95
2023-05-02T21:14:05.169Z,65.32
2023-05-02T21:16:33.424Z,65.61
2023-05-02T21:19:01.834Z,65.78
2023-05-02T21:21:30.875Z,66.09
2023-05-02T21:23:59.302Z,66.23
2023-05-02T21:26:27.427Z,66.87
2023-05-02T21:29:35.781Z,67.39
2023-05-02T21:32:43.963Z,68.05
2023-05-02T21:35:52.322Z,68.56
2023-05-02T21:39:06.169Z,68.27
2023-05-02T21:42:14.385Z,70.18
2023-05-02T21:45:22.668Z,70.10
2023-05-02T21:48:07.827Z,71.12
2023-05-02T21:50:36.942Z,71.20
2023-05-02T21:53:06.574Z,71.09
2023-05-02T21:55:39.365Z,71.61
2023-05-02T21:58:08.426Z,72.02
2023-05-02T22:00:38.561Z,72.61
2023-05-02T22:03:08.769Z,72.22
2023-05-02T22:05:43.736Z,72.08
2023-05-02T22:08:13.132Z,72.94
2023-05-02T22:10:42.651Z,72.83
2023-05-02T22:13:12.577Z,73.21
2023-05-02T22:15:45.615Z,73.49
2023-05-02T22:18:14.435Z,73.20
2023-05-02T22:20:43.530Z,72.90
2023-05-02T22:23:12.213Z,73.26
2023-05-02T22:25:41.622Z,72.81
2023-05-02T22:28:11.744Z,72.57
2023-05-02T22:30:40.966Z,72.50
2023-05-02T22:33:09.874Z,72.74
2023-05-02T22:35:38.324Z,72.55
2023-05-02T22:38:08.955Z,71.85
2023-05-02T22:40:37.330Z,71.81
2023-05-02T22:43:05.831Z,72.94
2023-05-02T22:45:35.294Z,72.84
2023-05-02T22:48:03.825Z,73.61
2023-05-02T22:50:32.389Z,73.44
2023-05-02T22:53:04.387Z,73.61
2023-05-02T22:55:32.948Z,74.40
2023-05-02T22:58:01.209Z,74.57
2023-05-02T23:00:29.657Z,74.49
2023-05-02T23:02:57.982Z,74.84
2023-05-02T23:05:27.067Z,75.08
2023-05-02T23:08:35.129Z,75.08
2023-05-02T23:11:43.288Z,75.19
2023-05-02T23:14:51.505Z,74.98
2023-05-02T23:17:59.866Z,75.18
2023-05-02T23:24:54.540Z,76.28
2023-05-02T23:28:02.980Z,76.24
2023-05-02T23:31:11.098Z,76.71
2023-05-02T23:33:56.290Z,76.31
2023-05-02T23:37:04.677Z,76.50
2023-05-02T23:40:12.976Z,76.63
2023-05-02T23:43:21.299Z,77.07
2023-05-02T23:46:42.986Z,77.00
2023-05-02T23:49:11.606Z,77.61
2023-05-02T23:51:39.987Z,77.89
2023-05-02T23:54:08.371Z,78.02
2023-05-02T23:56:37.373Z,77.68
2023-05-02T23:59:05.542Z,77.71
